createdAt,value
2018-05-06T05:51:06.927Z,18.60
2018-05-06T05:53:34.391Z,19.40
2018-05-06T05:56:01.820Z,20.00
2018-05-06T05:58:30.047Z,21.40
2018-05-06T06:00:57.481Z,21.40
2018-05-06T06:03:25.703Z,21.70
2018-05-06T06:05:53.166Z,21.60
2018-05-06T06:08:20.619Z,21.70
2018-05-06T06:10:48.869Z,21.90
2018-05-06T06:13:17.358Z,21.90
2018-05-06T06:15:44.848Z,22.40
2018-05-06T06:18:12.368Z,22.50
2018-05-06T06:20:40.580Z,22.10
2018-05-06T06:23:08.038Z,22.10
2018-05-06T06:25:36.387Z,22.20
2018-05-06T06:28:03.857Z,22.20
2018-05-06T06:30:31.311Z,22.10
2018-05-06T06:32:58.913Z,22.60
2018-05-06T06:35:26.375Z,23.30
2018-05-06T06:37:53.816Z,23.20
2018-05-06T06:40:21.338Z,23.50
2018-05-06T06:42:48.794Z,23.20
2018-05-06T06:45:16.265Z,23.50
2018-05-06T06:47:43.754Z,23.70
2018-05-06T06:50:11.257Z,24.30
2018-05-06T06:52:39.545Z,24.70
2018-05-06T06:55:07.009Z,24.60
2018-05-06T06:57:35.283Z,25.20
2018-05-06T07:00:02.747Z,25.20
2018-05-06T07:02:30.200Z,24.90
2018-05-06T07:04:57.772Z,25.00
2018-05-06T07:07:26.027Z,25.50
2018-05-06T07:09:53.563Z,25.50
2018-05-06T07:12:21.047Z,24.90
2018-05-06T07:14:48.512Z,24.40
2018-05-06T07:17:16.013Z,24.80
2018-05-06T07:19:43.471Z,25.90
2018-05-06T07:22:11.729Z,25.90
2018-05-06T07:24:39.173Z,25.90
2018-05-06T07:27:06.669Z,26.60
2018-05-06T07:29:34.143Z,26.40
2018-05-06T07:32:01.622Z,26.20
2018-05-06T07:34:29.849Z,25.80
2018-05-06T07:36:57.314Z,25.70
2018-05-06T07:39:24.761Z,26.20
2018-05-06T07:41:53.002Z,26.80
2018-05-06T07:44:20.477Z,26.70
2018-05-06T07:46:47.931Z,26.70
2018-05-06T07:49:15.385Z,26.60
2018-05-06T07:51:42.885Z,27.00
2018-05-06T07:54:10.364Z,27.50
2018-05-06T07:56:37.811Z,27.30
2018-05-06T07:59:06.069Z,27.80
2018-05-06T08:01:33.559Z,27.70
2018-05-06T08:04:01.058Z,27.90
2018-05-06T08:06:29.182Z,27.30
2018-05-06T08:09:01.025Z,27.50
2018-05-06T08:11:28.573Z,28.40
2018-05-06T08:13:56.283Z,28.80
2018-05-06T08:18:58.451Z,27.10
2018-05-06T08:21:27.045Z,27.00
2018-05-06T08:23:54.531Z,28.30
2018-05-06T08:26:22.071Z,27.70
2018-05-06T08:28:50.337Z,28.10
2018-05-06T08:31:17.871Z,28.10
2018-05-06T08:33:45.405Z,27.60
2018-05-06T08:36:12.899Z,27.90
2018-05-06T08:38:40.400Z,28.70
2018-05-06T08:41:07.853Z,27.70
2018-05-06T08:43:35.363Z,27.80
2018-05-06T08:46:02.855Z,26.70
2018-05-06T08:48:34.316Z,27.00
2018-05-06T08:51:01.801Z,28.30
2018-05-06T08:53:29.257Z,28.00
2018-05-06T08:55:56.714Z,28.20
2018-05-06T08:58:24.155Z,27.40
2018-05-06T09:00:52.247Z,28.10
2018-05-06T09:03:20.488Z,28.40
2018-05-06T09:05:47.967Z,28.40
2018-05-06T09:08:15.427Z,28.30
2018-05-06T09:10:42.935Z,27.70
2018-05-06T09:13:10.386Z,27.20
2018-05-06T09:15:38.083Z,27.80
2018-05-06T09:18:05.520Z,27.70
2018-05-06T09:20:33.646Z,27.50
2018-05-06T09:23:01.094Z,27.60
2018-05-06T09:25:31.926Z,27.90
2018-05-06T09:27:59.328Z,28.00
2018-05-06T09:30:26.790Z,27.60
2018-05-06T09:32:54.303Z,27.90
2018-05-06T09:35:21.753Z,28.30
2018-05-06T09:37:49.206Z,28.90
2018-05-06T09:40:16.661Z,29.50
2018-05-06T09:42:44.116Z,29.40
2018-05-06T09:45:11.584Z,29.70
2018-05-06T09:47:40.287Z,29.20
2018-05-06T09:50:07.746Z,29.30
2018-05-06T09:52:35.237Z,28.60
2018-05-06T09:55:02.702Z,27.20
2018-05-06T09:57:30.187Z,27.20
2018-05-06T09:59:58.428Z,28.10
2018-05-06T10:02:25.900Z,28.10
2018-05-06T10:04:53.520Z,28.50
2018-05-06T10:07:24.288Z,28.70
2018-05-06T10:09:52.519Z,29.40
2018-05-06T10:12:19.998Z,29.40
2018-05-06T10:14:47.465Z,29.40
2018-05-06T10:17:15.038Z,29.50
2018-05-06T10:19:42.495Z,29.40
2018-05-06T10:22:10.757Z,28.80
2018-05-06T10:24:38.378Z,28.80
2018-05-06T10:27:05.863Z,28.20
2018-05-06T10:29:33.339Z,28.50
2018-05-06T10:32:00.793Z,27.90
2018-05-06T10:34:29.066Z,27.90
2018-05-06T10:36:56.509Z,27.80
2018-05-06T10:39:24.006Z,27.70
2018-05-06T10:41:51.464Z,27.90
2018-05-06T10:44:18.965Z,28.30
2018-05-06T10:46:46.382Z,27.90
2018-05-06T10:49:13.917Z,27.80
2018-05-06T10:51:41.730Z,27.90
2018-05-06T10:54:09.944Z,28.20
2018-05-06T10:59:10.078Z,28.40
2018-05-06T11:01:38.334Z,28.20
2018-05-06T11:04:05.888Z,28.20
2018-05-06T11:06:33.295Z,28.50
2018-05-06T11:09:00.752Z,28.60
2018-05-06T11:11:29.236Z,28.30
2018-05-06T11:13:56.721Z,28.30
2018-05-06T11:16:24.198Z,28.00
2018-05-06T11:18:51.668Z,28.00
2018-05-06T11:21:19.171Z,28.30
2018-05-06T11:23:46.652Z,28.80
2018-05-06T11:26:14.192Z,28.90
2018-05-06T11:28:41.587Z,28.90
2018-05-06T11:31:09.085Z,28.80
2018-05-06T11:33:36.606Z,29.10
2018-05-06T11:36:04.798Z,29.20
2018-05-06T11:38:32.231Z,29.20
2018-05-06T11:41:00.716Z,29.00
2018-05-06T11:43:28.143Z,29.00
2018-05-06T11:45:55.627Z,28.60
2018-05-06T11:48:23.113Z,28.50
2018-05-06T11:50:50.579Z,28.40
2018-05-06T11:53:18.162Z,28.40
2018-05-06T11:55:46.236Z,28.20
2018-05-06T11:58:13.746Z,28.50
2018-05-06T12:00:41.203Z,28.80
2018-05-06T12:03:08.669Z,28.60
2018-05-06T12:05:36.128Z,29.00
2018-05-06T12:08:03.613Z,29.10
2018-05-06T12:10:31.080Z,28.70
2018-05-06T12:15:33.224Z,27.90
2018-05-06T12:18:00.705Z,28.10
2018-05-06T12:20:28.202Z,28.30
2018-05-06T12:22:55.696Z,28.50
2018-05-06T12:25:23.193Z,28.80
2018-05-06T12:27:51.543Z,29.50
2018-05-06T12:30:19.004Z,29.50
2018-05-06T12:32:46.445Z,29.20
2018-05-06T12:35:13.910Z,28.90
2018-05-06T12:37:41.403Z,28.70
2018-05-06T12:40:09.023Z,28.70
2018-05-06T12:42:36.515Z,28.80
2018-05-06T12:45:04.057Z,28.80
2018-05-06T12:47:31.511Z,28.70
2018-05-06T12:49:58.989Z,28.60
2018-05-06T12:52:26.486Z,28.90
2018-05-06T12:54:53.929Z,28.90
2018-05-06T12:57:21.423Z,29.40
2018-05-06T12:59:48.910Z,28.90
2018-05-06T13:02:16.417Z,28.70
2018-05-06T13:04:43.868Z,28.70
2018-05-06T13:07:11.323Z,29.30
2018-05-06T13:09:38.794Z,29.20
2018-05-06T13:12:06.250Z,29.80
2018-05-06T13:14:33.719Z,30.00
2018-05-06T13:17:01.179Z,29.60
2018-05-06T13:19:29.871Z,30.60
2018-05-06T13:21:58.201Z,30.40
2018-05-06T13:24:27.474Z,30.30
2018-05-06T13:26:55.058Z,29.90
2018-05-06T13:31:55.862Z,29.40
2018-05-06T13:34:23.340Z,29.50
2018-05-06T13:36:52.040Z,29.70
2018-05-06T13:39:20.328Z,29.80
2018-05-06T13:41:47.821Z,29.80
2018-05-06T13:44:16.051Z,29.40
2018-05-06T13:46:44.245Z,29.40
2018-05-06T13:49:12.500Z,29.30
2018-05-06T13:51:40.105Z,29.40
2018-05-06T13:54:07.631Z,29.70
2018-05-06T13:56:35.892Z,29.40
2018-05-06T13:59:03.335Z,29.40
2018-05-06T14:01:30.854Z,29.60
2018-05-06T14:03:58.341Z,29.70
2018-05-06T14:06:26.094Z,29.80
2018-05-06T14:08:54.260Z,30.00
2018-05-06T14:11:21.735Z,30.00
2018-05-06T14:13:53.096Z,29.90
2018-05-06T14:16:20.574Z,29.70
2018-05-06T14:18:48.854Z,29.80
2018-05-06T14:21:16.847Z,29.60
2018-05-06T14:23:45.089Z,29.70
2018-05-06T14:26:12.560Z,29.70
2018-05-06T14:28:40.141Z,29.50
2018-05-06T14:31:08.392Z,29.50
2018-05-06T14:33:35.929Z,29.80
2018-05-06T14:36:03.465Z,29.80
2018-05-06T14:38:31.011Z,29.60
2018-05-06T14:41:00.332Z,29.20
2018-05-06T14:43:27.915Z,29.10
2018-05-06T14:45:55.403Z,29.00
2018-05-06T14:48:22.905Z,29.20
2018-05-06T14:50:50.890Z,29.00
2018-05-06T14:53:19.294Z,29.00
2018-05-06T14:55:46.824Z,29.00
2018-05-06T14:58:14.276Z,29.00
2018-05-06T15:00:42.491Z,28.50
2018-05-06T15:03:14.527Z,28.50
2018-05-06T15:05:42.028Z,28.70
2018-05-06T15:08:09.560Z,28.80
2018-05-06T15:10:37.110Z,29.00
2018-05-06T15:13:04.554Z,29.20
2018-05-06T15:15:33.523Z,28.70
2018-05-06T15:18:01.123Z,28.70
2018-05-06T15:20:29.054Z,28.50
2018-05-06T15:22:56.511Z,28.50
2018-05-06T15:25:23.999Z,28.40
2018-05-06T15:27:51.527Z,28.20
2018-05-06T15:30:19.818Z,27.60
2018-05-06T15:32:47.269Z,27.60
2018-05-06T15:35:14.816Z,27.30
2018-05-06T15:37:42.537Z,27.20
2018-05-06T15:40:10.815Z,26.80
2018-05-06T15:42:38.743Z,26.60
2018-05-06T15:45:06.247Z,26.50
2018-05-06T15:47:34.430Z,26.40
2018-05-06T15:50:01.919Z,26.40
2018-05-06T15:52:29.448Z,26.40
2018-05-06T15:54:56.965Z,26.40
2018-05-06T15:57:25.214Z,26.20
2018-05-06T15:59:52.672Z,26.20
2018-05-06T16:05:28.884Z,26.00
2018-05-06T16:07:56.431Z,26.00
2018-05-06T16:10:23.881Z,26.00
2018-05-06T16:12:51.364Z,25.80
2018-05-06T16:15:18.827Z,25.60
2018-05-06T16:17:46.330Z,25.60
2018-05-06T16:20:14.602Z,25.60
2018-05-06T16:22:42.143Z,25.70
2018-05-06T16:25:09.592Z,25.70
2018-05-06T16:27:37.062Z,25.50
2018-05-06T16:30:04.560Z,25.30
2018-05-06T16:32:32.010Z,25.30
2018-05-06T16:34:59.563Z,25.20
2018-05-06T16:37:27.780Z,25.00
2018-05-06T16:39:55.281Z,25.00
2018-05-06T16:42:22.775Z,25.00
2018-05-06T16:44:50.999Z,24.90
2018-05-06T16:47:18.469Z,24.90
2018-05-06T16:49:46.031Z,24.80
2018-05-06T16:52:14.283Z,24.70
2018-05-06T16:54:41.742Z,24.70
2018-05-06T16:57:09.242Z,24.60
2018-05-06T16:59:37.566Z,24.50
2018-05-06T17:02:05.011Z,24.40
2018-05-06T17:04:32.682Z,24.40
2018-05-06T17:07:00.150Z,24.30
2018-05-06T17:09:27.602Z,24.30
2018-05-06T17:11:55.079Z,24.30
2018-05-06T17:14:23.361Z,24.30
2018-05-06T17:16:50.790Z,24.20
2018-05-06T17:19:18.265Z,24.00
2018-05-06T17:21:45.741Z,24.00
2018-05-06T17:24:13.264Z,23.90
2018-05-06T17:26:40.716Z,23.90
2018-05-06T17:29:08.343Z,23.80
2018-05-06T17:31:35.811Z,23.80
2018-05-06T17:34:03.274Z,23.70
2018-05-06T17:36:30.750Z,23.70
2018-05-06T17:38:58.211Z,23.60
2018-05-06T17:41:25.761Z,23.50
2018-05-06T17:43:53.200Z,23.40
2018-05-06T17:46:20.671Z,23.30
2018-05-06T17:48:48.126Z,23.30
2018-05-06T17:51:16.097Z,23.20
2018-05-06T17:53:43.965Z,23.10
2018-05-06T17:56:11.441Z,23.00
2018-05-06T17:58:39.689Z,22.90
2018-05-06T18:01:07.177Z,22.90
2018-05-06T18:03:34.617Z,22.80
2018-05-06T18:06:02.203Z,22.80
2018-05-06T18:08:29.683Z,22.70
2018-05-06T18:10:57.231Z,22.70
2018-05-06T18:13:25.458Z,22.60
2018-05-06T18:15:52.933Z,22.60
2018-05-06T18:18:20.398Z,22.40
2018-05-06T18:20:47.853Z,22.40
2018-05-06T18:23:15.391Z,22.30
2018-05-06T18:25:42.844Z,22.30
2018-05-06T18:28:10.310Z,22.20
2018-05-06T18:30:37.776Z,22.10
2018-05-06T18:33:05.270Z,22.10
2018-05-06T18:35:32.747Z,22.00
2018-05-06T18:38:00.234Z,22.00
2018-05-06T18:40:27.717Z,21.90
2018-05-06T18:42:55.184Z,21.80
2018-05-06T18:45:22.638Z,21.70
2018-05-06T18:47:50.089Z,21.70
2018-05-06T18:50:17.603Z,21.50
2018-05-06T18:52:45.056Z,21.50
2018-05-06T18:55:12.545Z,21.50
2018-05-06T18:57:39.997Z,21.40
2018-05-06T19:00:07.495Z,21.40
2018-05-06T19:02:34.989Z,21.30
2018-05-06T19:05:02.488Z,21.20
2018-05-06T19:07:30.724Z,21.00
2018-05-06T19:09:58.239Z,21.00
2018-05-06T19:12:25.756Z,21.00
2018-05-06T19:14:53.237Z,20.90
2018-05-06T19:17:20.695Z,20.90
2018-05-06T19:19:48.203Z,20.80
2018-05-06T19:22:15.669Z,20.70
2018-05-06T19:24:43.180Z,20.70
2018-05-06T19:27:10.642Z,20.70
2018-05-06T19:29:38.148Z,20.60
2018-05-06T19:32:05.603Z,20.50
2018-05-06T19:34:33.158Z,20.50
2018-05-06T19:37:00.611Z,20.40
2018-05-06T19:39:28.068Z,20.40
2018-05-06T19:41:56.362Z,20.30
2018-05-06T19:44:24.589Z,20.30
2018-05-06T19:46:52.059Z,20.20
2018-05-06T19:49:19.519Z,20.20
2018-05-06T19:51:47.071Z,20.20
2018-05-06T19:54:15.280Z,20.10
2018-05-06T19:56:42.753Z,20.10
2018-05-06T19:59:10.991Z,20.00
2018-05-06T20:01:38.476Z,19.90
2018-05-06T20:04:07.435Z,19.80
2018-05-06T20:06:34.926Z,19.70
2018-05-06T20:09:02.384Z,19.70
2018-05-06T20:11:29.880Z,19.60
2018-05-06T20:13:57.377Z,19.50
2018-05-06T20:16:24.855Z,19.50
2018-05-06T20:18:52.391Z,19.50
2018-05-06T20:21:19.881Z,19.40
2018-05-06T20:23:47.389Z,19.30
2018-05-06T20:26:14.867Z,19.20
2018-05-06T20:28:42.346Z,19.20
2018-05-06T20:31:09.810Z,19.10
2018-05-06T20:33:37.339Z,19.00
2018-05-06T20:36:05.544Z,19.00
2018-05-06T20:38:33.883Z,18.90
2018-05-06T20:41:01.377Z,18.90
2018-05-06T20:43:28.846Z,18.80
2018-05-06T20:45:57.169Z,18.60
2018-05-06T20:48:26.171Z,18.70
2018-05-06T20:50:58.981Z,18.60
2018-05-06T20:53:26.479Z,18.60
2018-05-06T20:55:53.991Z,18.60
2018-05-06T20:58:21.452Z,18.50
2018-05-06T21:00:48.912Z,18.50
2018-05-06T21:03:16.473Z,18.50
2018-05-06T21:05:44.009Z,18.40
2018-05-06T21:08:12.045Z,18.40
2018-05-06T21:10:43.607Z,18.40
2018-05-06T21:13:11.079Z,18.30
2018-05-06T21:15:38.668Z,18.30
2018-05-06T21:18:06.127Z,18.20
2018-05-06T21:20:33.598Z,18.10
2018-05-06T21:23:01.050Z,18.10
2018-05-06T21:25:33.568Z,18.00
2018-05-06T21:28:01.089Z,18.00
2018-05-06T21:30:28.638Z,18.00
2018-05-06T21:32:56.093Z,17.90
2018-05-06T21:35:24.024Z,17.90
2018-05-06T21:37:51.507Z,17.90
2018-05-06T21:40:18.989Z,17.90
2018-05-06T21:42:46.454Z,17.80
2018-05-06T21:45:13.919Z,17.80
2018-05-06T21:47:41.383Z,17.80
2018-05-06T21:50:08.877Z,17.70
2018-05-06T21:52:36.521Z,17.70
2018-05-06T21:55:03.997Z,17.70
2018-05-06T21:57:35.647Z,17.60
2018-05-06T22:00:03.136Z,17.60
2018-05-06T22:02:43.215Z,17.50
2018-05-06T22:05:10.697Z,17.50
2018-05-06T22:07:38.246Z,17.30
2018-05-06T22:10:05.729Z,17.40
2018-05-06T22:12:33.643Z,17.30
2018-05-06T22:15:01.167Z,17.30
2018-05-06T22:17:28.741Z,17.40
2018-05-06T22:20:28.946Z,17.40
2018-05-06T22:22:56.442Z,17.40
2018-05-06T22:25:24.707Z,17.30
2018-05-06T22:27:54.528Z,17.30
2018-05-06T22:44:11.665Z,17.00
2018-05-06T22:51:30.770Z,17.00
2018-05-06T22:53:59.060Z,17.00
2018-05-06T22:56:29.312Z,16.90
2018-05-06T22:58:56.817Z,16.90
2018-05-06T23:01:24.377Z,16.90
2018-05-06T23:06:56.296Z,16.70
2018-05-06T23:09:23.786Z,16.60
2018-05-06T23:11:51.264Z,16.50
2018-05-06T23:14:18.763Z,16.40
2018-05-06T23:16:46.222Z,16.50
2018-05-06T23:19:13.703Z,16.50
2018-05-06T23:21:41.306Z,16.50
2018-05-06T23:24:09.711Z,16.50
2018-05-06T23:26:37.919Z,16.40
2018-05-06T23:29:05.411Z,16.40
2018-05-06T23:31:32.896Z,16.40
2018-05-06T23:34:01.074Z,16.40
2018-05-06T23:36:28.707Z,16.40
2018-05-06T23:38:56.964Z,16.40
2018-05-06T23:41:24.448Z,16.30
2018-05-06T23:43:51.963Z,16.30
2018-05-06T23:46:19.449Z,16.20
2018-05-06T23:48:46.894Z,16.00
2018-05-06T23:51:14.360Z,16.10
2018-05-06T23:53:41.830Z,16.00
2018-05-06T23:56:09.407Z,16.00
2018-05-06T23:58:41.461Z,16.00
